sensor_id;sensor_type;location;lat;lon;timestamp;temperature;humidity
18906;DHT22;9585;51.018;4.282;2023-04-03T00:02:20;1.20;99.90
18906;DHT22;9585;51.018;4.282;2023-04-03T00:04:47;1.20;99.90
18906;DHT22;9585;51.018;4.282;2023-04-03T00:07:15;1.20;99.90
18906;DHT22;9585;51.018;4.282;2023-04-03T00:09:42;1.20;99.90
18906;DHT22;9585;51.018;4.282;2023-04-03T00:12:10;1.30;99.90
18906;DHT22;9585;51.018;4.282;2023-04-03T00:14:39;1.40;99.90
18906;DHT22;9585;51.018;4.282;2023-04-03T00:17:06;1.40;99.90
18906;DHT22;9585;51.018;4.282;2023-04-03T00:19:34;1.50;99.90
18906;DHT22;9585;51.018;4.282;2023-04-03T00:22:01;1.50;99.90
18906;DHT22;9585;51.018;4.282;2023-04-03T00:24:28;1.50;99.90
18906;DHT22;9585;51.018;4.282;2023-04-03T00:26:56;1.40;99.90
18906;DHT22;9585;51.018;4.282;2023-04-03T00:29:23;1.40;99.90
18906;DHT22;9585;51.018;4.282;2023-04-03T00:31:52;1.30;99.90
18906;DHT22;9585;51.018;4.282;2023-04-03T00:34:19;1.30;99.90
18906;DHT22;9585;51.018;4.282;2023-04-03T00:36:46;1.30;99.90
18906;DHT22;9585;51.018;4.282;2023-04-03T00:39:14;1.40;99.90
18906;DHT22;9585;51.018;4.282;2023-04-03T00:41:41;1.40;99.90
18906;DHT22;9585;51.018;4.282;2023-04-03T00:47:10;1.50;99.90
18906;DHT22;9585;51.018;4.282;2023-04-03T00:49:38;1.40;99.90
18906;DHT22;9585;51.018;4.282;2023-04-03T00:52:08;1.40;99.90
18906;DHT22;9585;51.018;4.282;2023-04-03T00:54:38;1.30;99.90
18906;DHT22;9585;51.018;4.282;2023-04-03T00:57:07;1.40;99.90
18906;DHT22;9585;51.018;4.282;2023-04-03T00:59:39;1.50;99.90
18906;DHT22;9585;51.018;4.282;2023-04-03T01:02:09;1.50;99.90
18906;DHT22;9585;51.018;4.282;2023-04-03T01:04:38;1.50;99.90
18906;DHT22;9585;51.018;4.282;2023-04-03T01:07:08;1.50;99.90
18906;DHT22;9585;51.018;4.282;2023-04-03T01:09:37;1.40;99.90
18906;DHT22;9585;51.018;4.282;2023-04-03T01:12:24;1.40;99.90
18906;DHT22;9585;51.018;4.282;2023-04-03T01:14:53;1.40;99.90
18906;DHT22;9585;51.018;4.282;2023-04-03T01:17:28;1.40;99.90
18906;DHT22;9585;51.018;4.282;2023-04-03T01:22:52;1.30;99.90
18906;DHT22;9585;51.018;4.282;2023-04-03T01:25:23;1.30;99.90
18906;DHT22;9585;51.018;4.282;2023-04-03T01:27:51;1.30;99.90
18906;DHT22;9585;51.018;4.282;2023-04-03T01:30:21;1.20;99.90
18906;DHT22;9585;51.018;4.282;2023-04-03T01:32:53;1.20;99.90
18906;DHT22;9585;51.018;4.282;2023-04-03T01:35:21;1.30;99.90
18906;DHT22;9585;51.018;4.282;2023-04-03T01:37:48;1.30;99.90
18906;DHT22;9585;51.018;4.282;2023-04-03T01:40:15;1.30;99.90
18906;DHT22;9585;51.018;4.282;2023-04-03T01:42:43;1.40;99.90
18906;DHT22;9585;51.018;4.282;2023-04-03T01:45:11;1.40;99.90
18906;DHT22;9585;51.018;4.282;2023-04-03T01:47:38;1.30;99.90
18906;DHT22;9585;51.018;4.282;2023-04-03T01:50:07;1.30;99.90
18906;DHT22;9585;51.018;4.282;2023-04-03T01:52:35;1.30;99.90
18906;DHT22;9585;51.018;4.282;2023-04-03T01:55:03;1.30;99.90
18906;DHT22;9585;51.018;4.282;2023-04-03T01:57:30;1.20;99.90
18906;DHT22;9585;51.018;4.282;2023-04-03T01:59:58;1.20;99.90
18906;DHT22;9585;51.018;4.282;2023-04-03T02:02:25;1.20;99.90
18906;DHT22;9585;51.018;4.282;2023-04-03T02:04:56;1.30;99.90
18906;DHT22;9585;51.018;4.282;2023-04-03T02:07:24;1.20;99.90
18906;DHT22;9585;51.018;4.282;2023-04-03T02:09:52;1.20;99.90
18906;DHT22;9585;51.018;4.282;2023-04-03T02:12:19;1.20;99.90
18906;DHT22;9585;51.018;4.282;2023-04-03T02:14:47;1.20;99.90
18906;DHT22;9585;51.018;4.282;2023-04-03T02:17:14;1.20;99.90
18906;DHT22;9585;51.018;4.282;2023-04-03T02:19:42;1.20;99.90
18906;DHT22;9585;51.018;4.282;2023-04-03T02:22:09;1.20;99.90
18906;DHT22;9585;51.018;4.282;2023-04-03T02:24:38;1.10;99.90
18906;DHT22;9585;51.018;4.282;2023-04-03T02:27:06;1.20;99.90
18906;DHT22;9585;51.018;4.282;2023-04-03T02:29:33;1.10;99.90
18906;DHT22;9585;51.018;4.282;2023-04-03T02:32:00;1.10;99.90
18906;DHT22;9585;51.018;4.282;2023-04-03T02:34:28;1.10;99.90
18906;DHT22;9585;51.018;4.282;2023-04-03T02:36:55;1.00;99.90
18906;DHT22;9585;51.018;4.282;2023-04-03T02:39:22;1.00;99.90
18906;DHT22;9585;51.018;4.282;2023-04-03T02:41:51;0.90;99.90
18906;DHT22;9585;51.018;4.282;2023-04-03T02:44:19;0.90;99.90
18906;DHT22;9585;51.018;4.282;2023-04-03T02:46:46;0.90;99.90
18906;DHT22;9585;51.018;4.282;2023-04-03T02:49:13;0.90;99.90
18906;DHT22;9585;51.018;4.282;2023-04-03T02:51:41;0.90;99.90
18906;DHT22;9585;51.018;4.282;2023-04-03T02:54:08;0.90;99.90
18906;DHT22;9585;51.018;4.282;2023-04-03T02:56:36;0.90;99.90
18906;DHT22;9585;51.018;4.282;2023-04-03T02:59:05;0.90;99.90
18906;DHT22;9585;51.018;4.282;2023-04-03T03:01:32;1.00;99.90
18906;DHT22;9585;51.018;4.282;2023-04-03T03:04:00;0.90;99.90
18906;DHT22;9585;51.018;4.282;2023-04-03T03:06:27;0.90;99.90
18906;DHT22;9585;51.018;4.282;2023-04-03T03:08:55;0.90;99.90
18906;DHT22;9585;51.018;4.282;2023-04-03T03:11:22;0.90;99.90
18906;DHT22;9585;51.018;4.282;2023-04-03T03:13:50;1.00;99.90
18906;DHT22;9585;51.018;4.282;2023-04-03T03:16:19;0.90;99.90
18906;DHT22;9585;51.018;4.282;2023-04-03T03:18:47;0.80;99.90
18906;DHT22;9585;51.018;4.282;2023-04-03T03:21:14;0.70;99.90
18906;DHT22;9585;51.018;4.282;2023-04-03T03:23:42;0.80;99.90
18906;DHT22;9585;51.018;4.282;2023-04-03T03:26:10;0.70;99.90
18906;DHT22;9585;51.018;4.282;2023-04-03T03:28:39;0.70;99.90
18906;DHT22;9585;51.018;4.282;2023-04-03T03:31:08;0.70;99.90
18906;DHT22;9585;51.018;4.282;2023-04-03T03:33:37;0.60;99.90
18906;DHT22;9585;51.018;4.282;2023-04-03T03:36:05;0.50;99.90
18906;DHT22;9585;51.018;4.282;2023-04-03T03:38:33;0.50;99.90
18906;DHT22;9585;51.018;4.282;2023-04-03T03:41:00;0.40;99.90
18906;DHT22;9585;51.018;4.282;2023-04-03T03:43:28;0.40;99.90
18906;DHT22;9585;51.018;4.282;2023-04-03T03:45:55;0.40;99.90
18906;DHT22;9585;51.018;4.282;2023-04-03T03:48:23;0.40;99.90
18906;DHT22;9585;51.018;4.282;2023-04-03T03:50:52;0.40;99.90
18906;DHT22;9585;51.018;4.282;2023-04-03T03:53:19;0.30;99.90
18906;DHT22;9585;51.018;4.282;2023-04-03T03:55:46;0.30;99.90
18906;DHT22;9585;51.018;4.282;2023-04-03T03:58:14;0.30;99.90
18906;DHT22;9585;51.018;4.282;2023-04-03T04:00:41;0.20;99.90
18906;DHT22;9585;51.018;4.282;2023-04-03T04:03:08;0.20;99.90
18906;DHT22;9585;51.018;4.282;2023-04-03T04:05:36;0.10;99.90
18906;DHT22;9585;51.018;4.282;2023-04-03T04:08:05;0.00;99.90
18906;DHT22;9585;51.018;4.282;2023-04-03T04:10:32;0.00;99.90
18906;DHT22;9585;51.018;4.282;2023-04-03T04:13:00;-0.10;99.90
18906;DHT22;9585;51.018;4.282;2023-04-03T04:15:27;-0.10;99.90
18906;DHT22;9585;51.018;4.282;2023-04-03T04:17:54;-0.10;99.90
18906;DHT22;9585;51.018;4.282;2023-04-03T04:20:23;-0.20;99.90
18906;DHT22;9585;51.018;4.282;2023-04-03T04:22:50;-0.20;99.90
18906;DHT22;9585;51.018;4.282;2023-04-03T04:25:19;-0.20;99.90
18906;DHT22;9585;51.018;4.282;2023-04-03T04:27:46;-0.20;99.90
18906;DHT22;9585;51.018;4.282;2023-04-03T04:30:14;-0.20;99.90
18906;DHT22;9585;51.018;4.282;2023-04-03T04:32:41;-0.20;99.90
18906;DHT22;9585;51.018;4.282;2023-04-03T04:35:09;-0.30;99.90
18906;DHT22;9585;51.018;4.282;2023-04-03T04:37:36;-0.30;99.90
18906;DHT22;9585;51.018;4.282;2023-04-03T04:40:04;-0.30;99.90
18906;DHT22;9585;51.018;4.282;2023-04-03T04:42:33;-0.40;99.90
18906;DHT22;9585;51.018;4.282;2023-04-03T04:45:01;-0.40;99.90
18906;DHT22;9585;51.018;4.282;2023-04-03T04:47:29;-0.40;99.90
18906;DHT22;9585;51.018;4.282;2023-04-03T04:49:56;-0.50;99.90
18906;DHT22;9585;51.018;4.282;2023-04-03T04:52:24;-0.50;99.90
18906;DHT22;9585;51.018;4.282;2023-04-03T04:54:51;-0.50;99.90
18906;DHT22;9585;51.018;4.282;2023-04-03T04:57:18;-0.50;99.90
18906;DHT22;9585;51.018;4.282;2023-04-03T04:59:47;-0.60;99.90
18906;DHT22;9585;51.018;4.282;2023-04-03T05:02:15;-0.60;99.90
18906;DHT22;9585;51.018;4.282;2023-04-03T05:04:42;-0.60;99.90
18906;DHT22;9585;51.018;4.282;2023-04-03T05:07:10;-0.60;99.90
18906;DHT22;9585;51.018;4.282;2023-04-03T05:09:37;-0.60;99.90
18906;DHT22;9585;51.018;4.282;2023-04-03T05:12:08;-0.70;99.90
18906;DHT22;9585;51.018;4.282;2023-04-03T05:14:35;-0.60;99.90
18906;DHT22;9585;51.018;4.282;2023-04-03T05:17:04;-0.70;99.90
18906;DHT22;9585;51.018;4.282;2023-04-03T05:19:32;-0.70;99.90
18906;DHT22;9585;51.018;4.282;2023-04-03T05:21:59;-0.70;99.90
18906;DHT22;9585;51.018;4.282;2023-04-03T05:24:26;-0.60;99.90
18906;DHT22;9585;51.018;4.282;2023-04-03T05:26:54;-0.60;99.90
18906;DHT22;9585;51.018;4.282;2023-04-03T05:29:21;-0.60;99.90
18906;DHT22;9585;51.018;4.282;2023-04-03T05:31:49;-0.60;99.90
18906;DHT22;9585;51.018;4.282;2023-04-03T05:34:19;-0.60;99.90
18906;DHT22;9585;51.018;4.282;2023-04-03T05:36:46;-0.50;99.90
18906;DHT22;9585;51.018;4.282;2023-04-03T05:39:14;-0.50;99.90
18906;DHT22;9585;51.018;4.282;2023-04-03T05:41:41;-0.50;99.90
18906;DHT22;9585;51.018;4.282;2023-04-03T05:44:09;-0.40;99.90
18906;DHT22;9585;51.018;4.282;2023-04-03T05:46:36;-0.30;99.90
18906;DHT22;9585;51.018;4.282;2023-04-03T05:49:03;-0.30;99.90
18906;DHT22;9585;51.018;4.282;2023-04-03T05:51:35;-0.20;99.90
18906;DHT22;9585;51.018;4.282;2023-04-03T05:54:09;-0.20;99.90
18906;DHT22;9585;51.018;4.282;2023-04-03T05:56:38;0.00;99.90
18906;DHT22;9585;51.018;4.282;2023-04-03T05:59:05;0.00;99.90
18906;DHT22;9585;51.018;4.282;2023-04-03T06:01:33;0.10;99.90
18906;DHT22;9585;51.018;4.282;2023-04-03T06:04:01;0.20;99.90
18906;DHT22;9585;51.018;4.282;2023-04-03T06:09:27;0.40;99.90
18906;DHT22;9585;51.018;4.282;2023-04-03T06:11:55;2.90;99.90
18906;DHT22;9585;51.018;4.282;2023-04-03T06:14:24;4.60;99.90
18906;DHT22;9585;51.018;4.282;2023-04-03T06:16:51;6.00;99.90
18906;DHT22;9585;51.018;4.282;2023-04-03T06:19:20;7.20;99.90
18906;DHT22;9585;51.018;4.282;2023-04-03T06:21:48;8.20;99.90
18906;DHT22;9585;51.018;4.282;2023-04-03T06:24:16;8.90;99.90
18906;DHT22;9585;51.018;4.282;2023-04-03T06:26:45;9.50;99.90
18906;DHT22;9585;51.018;4.282;2023-04-03T06:29:12;10.00;99.90
18906;DHT22;9585;51.018;4.282;2023-04-03T06:31:40;10.70;99.90
18906;DHT22;9585;51.018;4.282;2023-04-03T06:34:09;11.40;99.90
18906;DHT22;9585;51.018;4.282;2023-04-03T06:36:36;11.80;99.90
18906;DHT22;9585;51.018;4.282;2023-04-03T06:39:04;12.10;99.90
18906;DHT22;9585;51.018;4.282;2023-04-03T06:41:33;12.50;99.90
18906;DHT22;9585;51.018;4.282;2023-04-03T06:44:03;12.00;99.90
18906;DHT22;9585;51.018;4.282;2023-04-03T06:46:30;12.20;99.90
18906;DHT22;9585;51.018;4.282;2023-04-03T06:48:58;12.00;99.90
18906;DHT22;9585;51.018;4.282;2023-04-03T06:51:26;11.60;99.90
18906;DHT22;9585;51.018;4.282;2023-04-03T06:53:56;11.60;99.90
18906;DHT22;9585;51.018;4.282;2023-04-03T06:56:25;11.70;99.90
18906;DHT22;9585;51.018;4.282;2023-04-03T06:58:55;11.70;99.90
18906;DHT22;9585;51.018;4.282;2023-04-03T07:01:29;11.40;99.90
18906;DHT22;9585;51.018;4.282;2023-04-03T07:04:00;10.70;99.90
18906;DHT22;9585;51.018;4.282;2023-04-03T07:06:27;10.00;99.90
18906;DHT22;9585;51.018;4.282;2023-04-03T07:08:56;9.60;99.90
18906;DHT22;9585;51.018;4.282;2023-04-03T07:11:24;8.70;99.90
18906;DHT22;9585;51.018;4.282;2023-04-03T07:13:53;7.40;99.90
18906;DHT22;9585;51.018;4.282;2023-04-03T07:16:20;7.60;99.90
18906;DHT22;9585;51.018;4.282;2023-04-03T07:18:49;8.20;99.90
18906;DHT22;9585;51.018;4.282;2023-04-03T07:21:17;8.20;99.90
18906;DHT22;9585;51.018;4.282;2023-04-03T07:23:44;8.30;99.90
18906;DHT22;9585;51.018;4.282;2023-04-03T07:26:12;8.30;99.90
18906;DHT22;9585;51.018;4.282;2023-04-03T07:28:40;8.40;99.90
18906;DHT22;9585;51.018;4.282;2023-04-03T07:31:10;8.40;99.90
18906;DHT22;9585;51.018;4.282;2023-04-03T07:33:39;8.50;99.90
18906;DHT22;9585;51.018;4.282;2023-04-03T07:36:15;8.80;99.90
18906;DHT22;9585;51.018;4.282;2023-04-03T07:38:43;7.80;99.90
18906;DHT22;9585;51.018;4.282;2023-04-03T07:41:12;7.10;99.90
18906;DHT22;9585;51.018;4.282;2023-04-03T07:43:41;7.10;99.90
18906;DHT22;9585;51.018;4.282;2023-04-03T07:46:09;7.00;99.90
18906;DHT22;9585;51.018;4.282;2023-04-03T07:48:37;6.70;99.90
18906;DHT22;9585;51.018;4.282;2023-04-03T07:51:09;6.80;99.90
18906;DHT22;9585;51.018;4.282;2023-04-03T07:53:39;7.50;99.90
18906;DHT22;9585;51.018;4.282;2023-04-03T07:56:07;7.40;99.90
18906;DHT22;9585;51.018;4.282;2023-04-03T07:58:35;7.60;99.90
18906;DHT22;9585;51.018;4.282;2023-04-03T08:01:03;7.50;99.90
18906;DHT22;9585;51.018;4.282;2023-04-03T08:03:31;7.60;99.90
18906;DHT22;9585;51.018;4.282;2023-04-03T08:06:18;8.10;99.90
18906;DHT22;9585;51.018;4.282;2023-04-03T08:08:47;8.50;99.90
18906;DHT22;9585;51.018;4.282;2023-04-03T08:11:14;8.20;99.90
18906;DHT22;9585;51.018;4.282;2023-04-03T08:13:41;7.40;99.90
18906;DHT22;9585;51.018;4.282;2023-04-03T08:16:20;8.00;99.90
18906;DHT22;9585;51.018;4.282;2023-04-03T08:18:48;8.40;99.90
18906;DHT22;9585;51.018;4.282;2023-04-03T08:21:15;7.30;99.90
18906;DHT22;9585;51.018;4.282;2023-04-03T08:23:43;7.10;99.90
18906;DHT22;9585;51.018;4.282;2023-04-03T08:26:16;7.60;99.90
18906;DHT22;9585;51.018;4.282;2023-04-03T08:28:44;7.60;99.90
18906;DHT22;9585;51.018;4.282;2023-04-03T08:31:14;7.90;99.90
18906;DHT22;9585;51.018;4.282;2023-04-03T08:33:41;8.20;99.90
18906;DHT22;9585;51.018;4.282;2023-04-03T08:36:18;8.00;99.90
18906;DHT22;9585;51.018;4.282;2023-04-03T08:38:46;7.40;99.90
18906;DHT22;9585;51.018;4.282;2023-04-03T08:41:20;7.50;99.90
18906;DHT22;9585;51.018;4.282;2023-04-03T08:44:07;7.70;99.90
18906;DHT22;9585;51.018;4.282;2023-04-03T08:46:46;7.90;99.90
18906;DHT22;9585;51.018;4.282;2023-04-03T08:49:21;7.10;99.90
18906;DHT22;9585;51.018;4.282;2023-04-03T08:51:50;7.30;99.90
18906;DHT22;9585;51.018;4.282;2023-04-03T08:54:24;7.60;99.90
18906;DHT22;9585;51.018;4.282;2023-04-03T08:56:56;7.70;99.90
18906;DHT22;9585;51.018;4.282;2023-04-03T08:59:28;7.20;99.90
18906;DHT22;9585;51.018;4.282;2023-04-03T09:01:58;6.60;99.90
18906;DHT22;9585;51.018;4.282;2023-04-03T09:04:29;6.50;99.90
18906;DHT22;9585;51.018;4.282;2023-04-03T09:07:08;6.20;99.90
18906;DHT22;9585;51.018;4.282;2023-04-03T09:09:42;6.50;99.90
18906;DHT22;9585;51.018;4.282;2023-04-03T09:12:19;6.60;99.90
18906;DHT22;9585;51.018;4.282;2023-04-03T09:14:58;6.80;99.90
18906;DHT22;9585;51.018;4.282;2023-04-03T09:17:41;6.60;99.90
18906;DHT22;9585;51.018;4.282;2023-04-03T09:20:19;6.60;99.90
18906;DHT22;9585;51.018;4.282;2023-04-03T09:22:47;6.60;99.90
18906;DHT22;9585;51.018;4.282;2023-04-03T09:25:19;6.50;99.90
18906;DHT22;9585;51.018;4.282;2023-04-03T09:27:49;6.70;99.90
18906;DHT22;9585;51.018;4.282;2023-04-03T09:30:21;6.80;99.90
18906;DHT22;9585;51.018;4.282;2023-04-03T09:32:55;6.80;99.90
18906;DHT22;9585;51.018;4.282;2023-04-03T09:35:24;7.10;99.90
18906;DHT22;9585;51.018;4.282;2023-04-03T09:37:58;7.40;99.90
18906;DHT22;9585;51.018;4.282;2023-04-03T09:40:32;7.60;99.90
18906;DHT22;9585;51.018;4.282;2023-04-03T09:43:21;7.40;99.90
18906;DHT22;9585;51.018;4.282;2023-04-03T09:45:50;7.30;99.90
18906;DHT22;9585;51.018;4.282;2023-04-03T09:48:20;6.90;99.90
18906;DHT22;9585;51.018;4.282;2023-04-03T09:50:59;6.90;99.90
18906;DHT22;9585;51.018;4.282;2023-04-03T09:53:35;6.80;99.90
18906;DHT22;9585;51.018;4.282;2023-04-03T09:56:20;7.10;99.90
18906;DHT22;9585;51.018;4.282;2023-04-03T09:58:51;7.40;99.90
18906;DHT22;9585;51.018;4.282;2023-04-03T10:01:27;7.10;99.90
18906;DHT22;9585;51.018;4.282;2023-04-03T10:04:09;7.20;99.90
18906;DHT22;9585;51.018;4.282;2023-04-03T10:06:38;7.30;99.90
18906;DHT22;9585;51.018;4.282;2023-04-03T10:09:18;7.40;99.90
18906;DHT22;9585;51.018;4.282;2023-04-03T10:12:01;7.70;99.90
18906;DHT22;9585;51.018;4.282;2023-04-03T10:14:32;7.30;99.90
18906;DHT22;9585;51.018;4.282;2023-04-03T10:17:05;7.00;99.90
18906;DHT22;9585;51.018;4.282;2023-04-03T10:19:41;7.30;99.90
18906;DHT22;9585;51.018;4.282;2023-04-03T10:22:18;7.30;99.90
18906;DHT22;9585;51.018;4.282;2023-04-03T10:24:55;7.30;99.90
18906;DHT22;9585;51.018;4.282;2023-04-03T10:27:37;7.40;99.90
18906;DHT22;9585;51.018;4.282;2023-04-03T10:30:19;7.60;99.90
18906;DHT22;9585;51.018;4.282;2023-04-03T10:32:58;7.70;99.90
18906;DHT22;9585;51.018;4.282;2023-04-03T10:35:37;7.80;99.90
18906;DHT22;9585;51.018;4.282;2023-04-03T10:38:14;7.90;99.90
18906;DHT22;9585;51.018;4.282;2023-04-03T10:40:50;7.60;99.90
18906;DHT22;9585;51.018;4.282;2023-04-03T10:43:25;7.40;99.90
18906;DHT22;9585;51.018;4.282;2023-04-03T10:46:00;7.20;99.90
18906;DHT22;9585;51.018;4.282;2023-04-03T10:48:51;7.40;99.90
18906;DHT22;9585;51.018;4.282;2023-04-03T10:51:28;7.70;99.90
18906;DHT22;9585;51.018;4.282;2023-04-03T10:54:03;8.10;99.90
18906;DHT22;9585;51.018;4.282;2023-04-03T10:56:38;8.30;99.90
18906;DHT22;9585;51.018;4.282;2023-04-03T10:59:16;8.40;99.90
18906;DHT22;9585;51.018;4.282;2023-04-03T11:01:51;8.50;99.90
18906;DHT22;9585;51.018;4.282;2023-04-03T11:04:21;8.50;99.90
18906;DHT22;9585;51.018;4.282;2023-04-03T11:06:53;8.60;99.90
18906;DHT22;9585;51.018;4.282;2023-04-03T11:09:30;8.30;99.90
18906;DHT22;9585;51.018;4.282;2023-04-03T11:12:06;8.40;99.90
18906;DHT22;9585;51.018;4.282;2023-04-03T11:14:37;8.40;99.90
18906;DHT22;9585;51.018;4.282;2023-04-03T11:17:22;8.20;99.90
18906;DHT22;9585;51.018;4.282;2023-04-03T11:19:59;8.10;99.90
18906;DHT22;9585;51.018;4.282;2023-04-03T11:22:30;8.00;99.90
18906;DHT22;9585;51.018;4.282;2023-04-03T11:25:04;7.70;99.90
18906;DHT22;9585;51.018;4.282;2023-04-03T11:27:38;8.00;99.90
18906;DHT22;9585;51.018;4.282;2023-04-03T11:30:13;7.80;99.90
18906;DHT22;9585;51.018;4.282;2023-04-03T11:33:10;7.60;99.90
18906;DHT22;9585;51.018;4.282;2023-04-03T11:35:44;7.80;99.90
18906;DHT22;9585;51.018;4.282;2023-04-03T11:38:19;7.80;99.90
18906;DHT22;9585;51.018;4.282;2023-04-03T11:40:49;7.70;99.90
18906;DHT22;9585;51.018;4.282;2023-04-03T11:43:22;8.10;99.90
18906;DHT22;9585;51.018;4.282;2023-04-03T11:45:54;8.40;99.90
18906;DHT22;9585;51.018;4.282;2023-04-03T11:51:48;8.20;99.90
18906;DHT22;9585;51.018;4.282;2023-04-03T11:54:44;8.00;99.90
18906;DHT22;9585;51.018;4.282;2023-04-03T11:57:44;7.70;99.90
18906;DHT22;9585;51.018;4.282;2023-04-03T12:00:47;7.90;99.90
18906;DHT22;9585;51.018;4.282;2023-04-03T12:09:27;8.60;99.90
18906;DHT22;9585;51.018;4.282;2023-04-03T12:12:21;8.20;99.90
18906;DHT22;9585;51.018;4.282;2023-04-03T12:14:54;7.80;99.90
18906;DHT22;9585;51.018;4.282;2023-04-03T12:17:27;7.80;99.90
18906;DHT22;9585;51.018;4.282;2023-04-03T12:19:55;7.90;99.90
18906;DHT22;9585;51.018;4.282;2023-04-03T12:22:22;7.90;99.90
18906;DHT22;9585;51.018;4.282;2023-04-03T12:24:56;8.20;99.90
18906;DHT22;9585;51.018;4.282;2023-04-03T12:27:29;8.40;99.90
18906;DHT22;9585;51.018;4.282;2023-04-03T12:30:14;8.40;99.90
18906;DHT22;9585;51.018;4.282;2023-04-03T12:35:51;8.10;99.90
18906;DHT22;9585;51.018;4.282;2023-04-03T12:38:53;8.40;99.90
18906;DHT22;9585;51.018;4.282;2023-04-03T12:41:46;8.60;99.90
18906;DHT22;9585;51.018;4.282;2023-04-03T12:44:35;8.40;99.90
18906;DHT22;9585;51.018;4.282;2023-04-03T12:47:21;8.60;99.90
18906;DHT22;9585;51.018;4.282;2023-04-03T12:49:50;8.50;99.90
18906;DHT22;9585;51.018;4.282;2023-04-03T12:52:22;8.60;99.90
18906;DHT22;9585;51.018;4.282;2023-04-03T12:54:52;8.60;99.90
18906;DHT22;9585;51.018;4.282;2023-04-03T12:57:24;8.60;99.90
18906;DHT22;9585;51.018;4.282;2023-04-03T12:59:55;8.50;99.90
18906;DHT22;9585;51.018;4.282;2023-04-03T13:02:25;8.60;99.90
18906;DHT22;9585;51.018;4.282;2023-04-03T13:04:54;8.50;99.90
18906;DHT22;9585;51.018;4.282;2023-04-03T13:07:26;8.80;99.90
18906;DHT22;9585;51.018;4.282;2023-04-03T13:09:59;8.60;99.90
18906;DHT22;9585;51.018;4.282;2023-04-03T13:12:28;8.60;99.90
18906;DHT22;9585;51.018;4.282;2023-04-03T13:15:00;8.70;99.90
18906;DHT22;9585;51.018;4.282;2023-04-03T13:17:30;9.00;99.90
18906;DHT22;9585;51.018;4.282;2023-04-03T13:20:12;9.00;99.90
18906;DHT22;9585;51.018;4.282;2023-04-03T13:22:48;8.80;99.90
18906;DHT22;9585;51.018;4.282;2023-04-03T13:25:17;8.90;99.90
18906;DHT22;9585;51.018;4.282;2023-04-03T13:27:48;9.10;99.90
18906;DHT22;9585;51.018;4.282;2023-04-03T13:30:25;9.30;99.90
18906;DHT22;9585;51.018;4.282;2023-04-03T13:32:54;9.40;99.90
18906;DHT22;9585;51.018;4.282;2023-04-03T13:35:37;9.00;99.90
18906;DHT22;9585;51.018;4.282;2023-04-03T13:38:23;8.80;99.90
18906;DHT22;9585;51.018;4.282;2023-04-03T13:40:57;8.70;99.90
18906;DHT22;9585;51.018;4.282;2023-04-03T13:43:31;8.60;99.90
18906;DHT22;9585;51.018;4.282;2023-04-03T13:46:04;8.90;99.90
18906;DHT22;9585;51.018;4.282;2023-04-03T13:48:37;8.60;99.90
18906;DHT22;9585;51.018;4.282;2023-04-03T13:51:16;8.30;99.90
18906;DHT22;9585;51.018;4.282;2023-04-03T13:53:48;8.50;99.90
18906;DHT22;9585;51.018;4.282;2023-04-03T13:56:19;8.60;99.90
18906;DHT22;9585;51.018;4.282;2023-04-03T13:59:05;8.60;99.90
18906;DHT22;9585;51.018;4.282;2023-04-03T14:01:39;8.50;99.90
18906;DHT22;9585;51.018;4.282;2023-04-03T14:04:14;8.40;99.90
18906;DHT22;9585;51.018;4.282;2023-04-03T14:06:41;8.60;99.90
18906;DHT22;9585;51.018;4.282;2023-04-03T14:09:09;8.60;99.90
18906;DHT22;9585;51.018;4.282;2023-04-03T14:11:37;8.60;99.90
18906;DHT22;9585;51.018;4.282;2023-04-03T14:14:14;8.70;99.90
18906;DHT22;9585;51.018;4.282;2023-04-03T14:16:45;8.80;99.90
18906;DHT22;9585;51.018;4.282;2023-04-03T14:19:22;8.50;99.90
18906;DHT22;9585;51.018;4.282;2023-04-03T14:21:50;8.40;99.90
18906;DHT22;9585;51.018;4.282;2023-04-03T14:24:18;8.50;99.90
18906;DHT22;9585;51.018;4.282;2023-04-03T14:26:47;8.70;99.90
18906;DHT22;9585;51.018;4.282;2023-04-03T14:29:20;8.80;99.90
18906;DHT22;9585;51.018;4.282;2023-04-03T14:31:53;9.00;99.90
18906;DHT22;9585;51.018;4.282;2023-04-03T14:34:20;9.10;99.90
18906;DHT22;9585;51.018;4.282;2023-04-03T14:36:48;8.90;99.90
18906;DHT22;9585;51.018;4.282;2023-04-03T14:39:17;8.80;99.90
18906;DHT22;9585;51.018;4.282;2023-04-03T14:41:46;8.70;99.90
18906;DHT22;9585;51.018;4.282;2023-04-03T14:44:20;8.80;99.90
18906;DHT22;9585;51.018;4.282;2023-04-03T14:46:49;8.90;99.90
18906;DHT22;9585;51.018;4.282;2023-04-03T14:49:20;9.10;99.90
18906;DHT22;9585;51.018;4.282;2023-04-03T14:51:48;9.10;99.90
18906;DHT22;9585;51.018;4.282;2023-04-03T14:54:19;9.10;99.90
18906;DHT22;9585;51.018;4.282;2023-04-03T14:56:51;8.70;99.90
18906;DHT22;9585;51.018;4.282;2023-04-03T14:59:23;8.70;99.90
18906;DHT22;9585;51.018;4.282;2023-04-03T15:01:50;8.80;99.90
18906;DHT22;9585;51.018;4.282;2023-04-03T15:04:20;8.70;99.90
18906;DHT22;9585;51.018;4.282;2023-04-03T15:06:48;8.50;99.90
18906;DHT22;9585;51.018;4.282;2023-04-03T15:09:23;8.80;99.90
18906;DHT22;9585;51.018;4.282;2023-04-03T15:11:52;9.00;99.90
18906;DHT22;9585;51.018;4.282;2023-04-03T15:14:22;9.00;99.90
18906;DHT22;9585;51.018;4.282;2023-04-03T15:16:49;9.00;99.90
18906;DHT22;9585;51.018;4.282;2023-04-03T15:19:17;9.20;99.90
18906;DHT22;9585;51.018;4.282;2023-04-03T15:21:44;9.00;99.90
18906;DHT22;9585;51.018;4.282;2023-04-03T15:24:12;9.00;99.90
18906;DHT22;9585;51.018;4.282;2023-04-03T15:26:39;9.20;99.90
18906;DHT22;9585;51.018;4.282;2023-04-03T15:29:07;9.00;99.90
18906;DHT22;9585;51.018;4.282;2023-04-03T15:31:37;8.70;99.90
18906;DHT22;9585;51.018;4.282;2023-04-03T15:34:04;8.60;99.90
18906;DHT22;9585;51.018;4.282;2023-04-03T15:36:32;8.40;99.90
18906;DHT22;9585;51.018;4.282;2023-04-03T15:38:59;8.50;99.90
18906;DHT22;9585;51.018;4.282;2023-04-03T15:41:27;8.50;99.90
18906;DHT22;9585;51.018;4.282;2023-04-03T15:43:56;8.50;99.90
18906;DHT22;9585;51.018;4.282;2023-04-03T15:46:24;8.60;99.90
18906;DHT22;9585;51.018;4.282;2023-04-03T15:48:53;8.40;99.90
18906;DHT22;9585;51.018;4.282;2023-04-03T15:51:21;8.40;99.90
18906;DHT22;9585;51.018;4.282;2023-04-03T15:53:49;8.40;99.90
18906;DHT22;9585;51.018;4.282;2023-04-03T15:56:16;8.50;99.90
18906;DHT22;9585;51.018;4.282;2023-04-03T15:58:44;8.70;99.90
18906;DHT22;9585;51.018;4.282;2023-04-03T16:01:11;8.70;99.90
18906;DHT22;9585;51.018;4.282;2023-04-03T16:03:40;8.90;99.90
18906;DHT22;9585;51.018;4.282;2023-04-03T16:06:13;8.90;99.90
18906;DHT22;9585;51.018;4.282;2023-04-03T16:08:41;8.90;99.90
18906;DHT22;9585;51.018;4.282;2023-04-03T16:11:10;8.50;99.90
18906;DHT22;9585;51.018;4.282;2023-04-03T16:13:38;8.40;99.90
18906;DHT22;9585;51.018;4.282;2023-04-03T16:16:08;8.50;99.90
18906;DHT22;9585;51.018;4.282;2023-04-03T16:18:38;8.50;99.90
18906;DHT22;9585;51.018;4.282;2023-04-03T16:21:08;8.40;99.90
18906;DHT22;9585;51.018;4.282;2023-04-03T16:23:41;8.40;99.90
18906;DHT22;9585;51.018;4.282;2023-04-03T16:26:09;8.40;99.90
18906;DHT22;9585;51.018;4.282;2023-04-03T16:28:39;8.50;99.90
18906;DHT22;9585;51.018;4.282;2023-04-03T16:31:09;8.60;99.90
18906;DHT22;9585;51.018;4.282;2023-04-03T16:33:37;8.40;99.90
18906;DHT22;9585;51.018;4.282;2023-04-03T16:36:07;8.50;99.90
18906;DHT22;9585;51.018;4.282;2023-04-03T16:38:37;8.60;99.90
18906;DHT22;9585;51.018;4.282;2023-04-03T16:41:07;8.60;99.90
18906;DHT22;9585;51.018;4.282;2023-04-03T16:43:34;8.60;99.90
18906;DHT22;9585;51.018;4.282;2023-04-03T16:46:03;8.40;99.90